»·PEaware :: N7375Q KIEN-KJAC

N7375Q :: KIEN-KJAC

FLIGHT INFORMATION

Flight Status: Arrived
Operator: Privately registered:
United States
More flights under this callsign
Pilot: Ion I. (24133)
Aircraft: SOCATA TBM-900
(TBM9)
More flights by this aircraft type
Origin: KIEN Pine Ridge
United States
Destination: KJAC Jackson Hole
United States
More flights between these airports :: More routes between these airports
Route: RODIE DDY V298 DNW
File this flight plan on PilotEdge
Remarks:
Altitude:
(Current/Filed)
26,000ft
Speed:
(Current/Filed)
315kts
Departed: 15-Aug-20 06:58 PM
Arrived: 15-Aug-20 08:26 PM
Distance/Time
Traveled:
361nm/1:28
Distance/Time
To Go:
Arrived

Flight Plot

Page will automatically refresh every two minutes.

Flight plan parsing failed; only flown route is shown


Map Options




Map Legend


Flown Route
Filed Route
Departure Airport
Arrival Airport
Navaid (VOR, NDB)
Fix

Horizontal Profiles

Position Reports

Time Latitude Longitude Heading Altitude Ground
Speed
15-Aug-20 18:47 43.025593 -102.517131 258 3290ft 0kts
15-Aug-20 18:48 43.025593 -102.517131 258 3290ft 0kts
15-Aug-20 18:49 43.025593 -102.517131 258 3290ft 0kts
15-Aug-20 18:50 43.025593 -102.517131 258 3290ft 0kts
15-Aug-20 18:51 43.025593 -102.517131 258 3290ft 0kts
15-Aug-20 18:52 43.025592 -102.517131 258 3290ft 0kts
15-Aug-20 18:53 43.025593 -102.517131 258 3290ft 0kts
15-Aug-20 18:54 43.025194 -102.517495 166 3290ft 4kts
15-Aug-20 18:55 43.025066 -102.515585 77 3292ft 8kts
15-Aug-20 18:56 43.025461 -102.513916 37 3293ft 7kts
15-Aug-20 18:57 43.020418 -102.505087 128 3360ft 105kts
15-Aug-20 18:58 42.999167 -102.486561 223 4980ft 115kts
15-Aug-20 18:59 42.994339 -102.531108 269 7066ft 131kts
15-Aug-20 19:00 42.994572 -102.584685 270 9003ft 151kts
15-Aug-20 19:01 42.994918 -102.644192 271 11006ft 165kts
15-Aug-20 19:02 42.995251 -102.708002 272 13084ft 173kts
15-Aug-20 19:03 42.995575 -102.774161 273 15109ft 178kts
15-Aug-20 19:04 42.995878 -102.842049 275 17126ft 179kts
15-Aug-20 19:05 42.996188 -102.910735 275 19152ft 184kts
15-Aug-20 19:06 42.996446 -102.981878 275 21181ft 191kts
15-Aug-20 19:07 42.996639 -103.054588 274 23190ft 195kts
15-Aug-20 19:08 42.996777 -103.128902 274 25202ft 199kts
15-Aug-20 19:09 42.996923 -103.209539 272 26158ft 236kts
15-Aug-20 19:10 42.996922 -103.306546 271 26138ft 269kts
15-Aug-20 19:11 42.996878 -103.411539 271 26130ft 281kts
15-Aug-20 19:12 43.000934 -103.518754 274 26128ft 284kts
15-Aug-20 19:13 43.005730 -103.627203 275 26126ft 286kts
15-Aug-20 19:14 43.010399 -103.735103 274 26130ft 287kts
15-Aug-20 19:15 43.015006 -103.844052 274 26130ft 287kts
15-Aug-20 19:16 43.019517 -103.953146 274 26134ft 287kts
15-Aug-20 19:17 43.023921 -104.061938 273 26167ft 287kts
15-Aug-20 19:18 43.028215 -104.171062 273 26199ft 287kts
15-Aug-20 19:19 43.032427 -104.280524 273 26201ft 288kts
15-Aug-20 19:20 43.036537 -104.390080 273 26200ft 288kts
15-Aug-20 19:21 43.040533 -104.499373 273 26200ft 288kts
15-Aug-20 19:22 43.044427 -104.608720 273 26199ft 288kts
15-Aug-20 19:23 43.048227 -104.718519 273 26203ft 288kts
15-Aug-20 19:24 43.051923 -104.828313 273 26204ft 288kts
15-Aug-20 19:25 43.055510 -104.937890 273 26209ft 288kts
15-Aug-20 19:26 43.058993 -105.047536 273 26224ft 288kts
15-Aug-20 19:27 43.062376 -105.157359 273 26235ft 288kts
15-Aug-20 19:28 43.065648 -105.266940 273 26234ft 288kts
15-Aug-20 19:29 43.068816 -105.376613 273 26233ft 288kts
15-Aug-20 19:30 43.071889 -105.486545 272 26232ft 289kts
15-Aug-20 19:31 43.074856 -105.596503 272 26232ft 289kts
15-Aug-20 19:32 43.077710 -105.706479 272 26235ft 289kts
15-Aug-20 19:33 43.080474 -105.816682 272 26234ft 289kts
15-Aug-20 19:34 43.083125 -105.926844 272 26236ft 289kts
15-Aug-20 19:35 43.085663 -106.036922 272 26238ft 289kts
15-Aug-20 19:36 43.088112 -106.147164 272 26240ft 289kts
15-Aug-20 19:37 43.090453 -106.257559 272 26240ft 290kts
15-Aug-20 19:38 43.107793 -106.364520 284 26240ft 289kts
15-Aug-20 19:39 43.128346 -106.471206 284 26241ft 289kts
15-Aug-20 19:40 43.148708 -106.577508 284 26242ft 288kts
15-Aug-20 19:41 43.169002 -106.684014 284 26247ft 288kts
15-Aug-20 19:42 43.189107 -106.790128 284 26248ft 288kts
15-Aug-20 19:43 43.209191 -106.896708 284 26232ft 288kts
15-Aug-20 19:44 43.229152 -107.003251 284 26211ft 288kts
15-Aug-20 19:45 43.248979 -107.109656 284 26201ft 288kts
15-Aug-20 19:46 43.268674 -107.215943 284 26214ft 287kts
15-Aug-20 19:47 43.288285 -107.322396 284 26188ft 287kts
15-Aug-20 19:48 43.307796 -107.428923 284 26167ft 287kts
15-Aug-20 19:49 43.327190 -107.535385 284 26154ft 286kts
15-Aug-20 19:50 43.346374 -107.641333 284 26156ft 285kts
15-Aug-20 19:51 43.365519 -107.747640 284 25911ft 292kts
15-Aug-20 19:52 43.384781 -107.855095 284 25417ft 290kts
15-Aug-20 19:53 43.404478 -107.965796 284 24257ft 309kts
15-Aug-20 19:54 43.425064 -108.082358 284 22761ft 314kts
15-Aug-20 19:55 43.445451 -108.198403 284 21253ft 310kts
15-Aug-20 19:56 43.465728 -108.313210 285 19738ft 307kts
15-Aug-20 19:57 43.486944 -108.425786 285 18229ft 303kts
15-Aug-20 19:58 43.508006 -108.538027 285 16703ft 300kts
15-Aug-20 19:59 43.528460 -108.647764 285 15825ft 281kts
15-Aug-20 20:00 43.547253 -108.749029 284 15832ft 266kts
15-Aug-20 20:01 43.565382 -108.847354 284 15855ft 263kts
15-Aug-20 20:02 43.583264 -108.944878 284 15891ft 262kts
15-Aug-20 20:03 43.601111 -109.042639 284 15949ft 262kts
15-Aug-20 20:04 43.618846 -109.140336 284 15988ft 262kts
15-Aug-20 20:05 43.636549 -109.238358 284 16011ft 263kts
15-Aug-20 20:06 43.654207 -109.336678 284 16013ft 263kts
15-Aug-20 20:07 43.671724 -109.434760 284 16012ft 263kts
15-Aug-20 20:08 43.689213 -109.533142 284 16012ft 263kts
15-Aug-20 20:09 43.706659 -109.631851 284 16010ft 263kts
15-Aug-20 20:10 43.724620 -109.734028 283 15049ft 274kts
15-Aug-20 20:11 43.742854 -109.838366 283 14063ft 283kts
15-Aug-20 20:12 43.760740 -109.941311 284 14013ft 268kts
15-Aug-20 20:13 43.777902 -110.040918 283 14024ft 264kts
15-Aug-20 20:14 43.794889 -110.139529 284 14039ft 263kts
15-Aug-20 20:15 43.811758 -110.238255 284 14049ft 263kts
15-Aug-20 20:16 43.828236 -110.337233 277 14036ft 264kts
15-Aug-20 20:17 43.820886 -110.440172 265 12996ft 270kts
15-Aug-20 20:18 43.810686 -110.543828 243 10952ft 265kts
15-Aug-20 20:19 43.779115 -110.626022 220 9749ft 216kts
15-Aug-20 20:20 43.736811 -110.670205 217 8937ft 145kts
15-Aug-20 20:21 43.705031 -110.690212 200 8451ft 123kts
15-Aug-20 20:23 43.672712 -110.705955 199 7653ft 119kts
15-Aug-20 20:24 43.642807 -110.720868 197 7018ft 105kts
15-Aug-20 20:25 43.616303 -110.733411 195 6489ft 97kts
15-Aug-20 20:26 43.603735 -110.738240 112 6421ft 3kts
15-Aug-20 20:27 43.601036 -110.739243 197 6416ft 21kts
15-Aug-20 20:28 43.599508 -110.738676 15 6414ft 0kts
15-Aug-20 20:29 43.599507 -110.738676 15 6414ft 0kts
15-Aug-20 20:30 43.599507 -110.738676 15 6414ft 0kts
15-Aug-20 20:31 43.599508 -110.738676 15 6414ft 0kts
15-Aug-20 20:32 43.599508 -110.738676 15 6414ft 0kts
15-Aug-20 20:33 43.599508 -110.738676 15 6414ft 0kts
15-Aug-20 20:34 43.599508 -110.738676 15 6414ft 0kts
15-Aug-20 20:35 43.599508 -110.738676 15 6414ft 0kts
15-Aug-20 20:36 43.599508 -110.738676 15 6414ft 0kts
15-Aug-20 20:37 43.599508 -110.738676 15 6414ft 0kts
15-Aug-20 20:38 43.599508 -110.738676 15 6414ft 0kts
15-Aug-20 20:38 43.599508 -110.738676 15 6414ft 0kts

Navigation Log

Ident Type
Flight plan parsing failed, navigation log unavailable